Time;durP1;ratioP1;P1;durP2;ratioP2;P2;SDS_P1;SDS_P2;PMS_P1;PMS_P2;Temp;Humidity;BMP_temperature;BMP_pressure;BME280_temperature;BME280_humidity;BME280_pressure;Samples;Min_cycle;Max_cycle;Signal;HPM_P1;HPM_P2
2022/04/14 00:00:55;;;;;;;;;;;;;;;;;;2141294;27;19973;-42
2022/04/14 00:01:56;;;;;;;;;;;;;;;;;;2140947;27;20292;-42
2022/04/14 00:02:57;;;;;;;;;;;;;;;;;;2141204;27;19923;-43
2022/04/14 00:03:58;;;;;;;;;;;;;;;;;;2141019;27;20083;-43
2022/04/14 00:04:59;;;;;;;;;;;;;;;;;;2141114;27;20017;-42
2022/04/14 00:06:00;;;;;;;;;;;;;;;;;;2141085;27;19922;-42
2022/04/14 00:07:00;;;;;;;;;;;;;;;;;;2141106;27;20487;-43
2022/04/14 00:08:01;;;;;;;;;;;;;;;;;;2141112;27;19930;-43
2022/04/14 00:09:02;;;;;;;;;;;;;;;;;;2141297;27;19969;-43
2022/04/14 00:10:03;;;;;;;;;;;;;;;;;;2141492;27;20286;-42
2022/04/14 00:11:04;;;;;;;;;;;;;;;;;;2140997;27;20013;-43
2022/04/14 00:12:05;;;;;;;;;;;;;;;;;;2141180;27;19926;-43
2022/04/14 00:13:06;;;;;;;;;;;;;;;;;;2140995;27;20009;-43
2022/04/14 00:14:07;;;;;;;;;;;;;;;;;;2139008;27;20294;-43
2022/04/14 00:15:08;;;;;;;;;;;;;;;;;;2132340;27;20011;-43
2022/04/14 00:16:09;;;;;;;;;;;;;;;;;;2132529;27;20288;-43
2022/04/14 00:17:12;;;;;;;;;;;;;;;;;;2132710;27;20013;-49
2022/04/14 00:18:13;;;;;;;;;;;;;;;;;;2132344;27;19934;-53
2022/04/14 00:19:13;;;;;;;;;;;;;;;;;;2132341;27;19977;-52
2022/04/14 00:20:14;;;;;;;;;;;;;;;;;;2132451;27;19976;-50
2022/04/14 00:21:15;;;;;;;;;;;;;;;;;;2132861;27;19962;-44
2022/04/14 00:22:16;;;;;;;;;;;;;;;;;;2137730;27;19946;-43
2022/04/14 00:23:17;;;;;;;;;;;;;;;;;;2141098;27;20006;-43
2022/04/14 00:24:18;;;;;;;;;;;;;;;;;;2140990;27;19923;-43
2022/04/14 00:25:19;;;;;;;;;;;;;;;;;;2140996;27;20013;-43
2022/04/14 00:26:20;;;;;;;;;;;;;;;;;;2140902;27;20021;-43
2022/04/14 00:27:21;;;;;;;;;;;;;;;;;;2140949;27;20507;-43
2022/04/14 00:28:22;;;;;;;;;;;;;;;;;;2141088;27;19930;-42
2022/04/14 00:29:22;;;;;;;;;;;;;;;;;;2141084;27;20262;-43
2022/04/14 00:30:23;;;;;;;;;;;;;;;;;;2141028;27;20332;-43
2022/04/14 00:31:24;;;;;;;;;;;;;;;;;;2140970;27;20392;-42
2022/04/14 00:32:25;;;;;;;;;;;;;;;;;;2141309;27;19926;-43
2022/04/14 00:33:26;;;;;;;;;;;;;;;;;;2140906;27;20006;-43
2022/04/14 00:34:27;;;;;;;;;;;;;;;;;;2140933;27;19930;-43
2022/04/14 00:35:28;;;;;;;;;;;;;;;;;;2140754;27;20395;-43
2022/04/14 00:36:29;;;;;;;;;;;;;;;;;;2140910;27;19923;-43
2022/04/14 00:37:30;;;;;;;;;;;;;;;;;;2140869;27;19923;-43
2022/04/14 00:38:31;;;;;;;;;;;;;;;;;;2140923;27;19922;-43
2022/04/14 00:39:31;;;;;;;;;;;;;;;;;;2140789;27;20021;-51
2022/04/14 00:40:32;;;;;;;;;;;;;;;;;;2141207;27;20375;-51
2022/04/14 00:41:33;;;;;;;;;;;;;;;;;;2140875;27;20009;-50
2022/04/14 00:42:34;;;;;;;;;;;;;;;;;;2140793;27;20324;-51
2022/04/14 00:43:35;;;;;;;;;;;;;;;;;;2140952;27;20010;-50
2022/04/14 00:44:36;;;;;;;;;;;;;;;;;;2140963;27;19953;-43
2022/04/14 00:45:37;;;;;;;;;;;;;;;;;;2140967;27;20006;-43
2022/04/14 00:46:38;;;;;;;;;;;;;;;;;;2140786;27;19927;-43
2022/04/14 00:47:39;;;;;;;;;;;;;;;;;;2140729;27;19971;-43
2022/04/14 00:48:40;;;;;;;;;;;;;;;;;;2140743;27;19975;-43
2022/04/14 00:49:40;;;;;;;;;;;;;;;;;;2140793;27;19962;-43
2022/04/14 00:50:41;;;;;;;;;;;;;;;;;;2140792;27;20002;-43
2022/04/14 00:51:42;;;;;;;;;;;;;;;;;;2140892;27;20167;-43
2022/04/14 00:52:44;;;;;;;;;;;;;;;;;;2140822;27;20009;-43
2022/04/14 00:53:45;;;;;;;;;;;;;;;;;;2140710;27;20155;-42
2022/04/14 00:54:45;;;;;;;;;;;;;;;;;;2140896;27;20013;-42
2022/04/14 00:55:47;;;;;;;;;;;;;;;;;;2140832;27;19930;-43
2022/04/14 00:56:47;;;;;;;;;;;;;;;;;;2140738;27;20272;-43
2022/04/14 00:57:48;;;;;;;;;;;;;;;;;;2140704;27;19930;-43
2022/04/14 00:58:52;;;;;;;;;;;;;;;;;;2140888;27;19997;-43
2022/04/14 00:59:53;;;;;;;;;;;;;;;;;;2140539;27;20010;-50
2022/04/14 01:00:54;;;;;;;;;;;;;;;;;;2140703;27;19923;-49
2022/04/14 01:01:55;;;;;;;;;;;;;;;;;;2140693;27;19926;-50
2022/04/14 01:02:56;;;;;;;;;;;;;;;;;;2140827;27;20328;-52
2022/04/14 01:03:58;;;;;;;;;;;;;;;;;;2140786;27;19973;-51
2022/04/14 01:04:59;;;;;;;;;;;;;;;;;;2140667;27;19970;-49
2022/04/14 01:06:00;;;;;;;;;;;;;;;;;;2140620;27;19931;-51
2022/04/14 01:07:01;;;;;;;;;;;;;;;;;;2140605;27;19922;-52
2022/04/14 01:08:02;;;;;;;;;;;;;;;;;;2140887;27;20365;-52
2022/04/14 01:09:19;;;;;;;;;;;;;;;;;;2140635;27;19923;-50
2022/04/14 01:10:20;;;;;;;;;;;;;;;;;;2140468;27;20095;-53
2022/04/14 01:11:20;;;;;;;;;;;;;;;;;;2132981;27;20013;-43
2022/04/14 01:12:22;;;;;;;;;;;;;;;;;;2132090;27;19927;-43
2022/04/14 01:13:22;;;;;;;;;;;;;;;;;;2132096;27;19962;-43
2022/04/14 01:14:23;;;;;;;;;;;;;;;;;;2132003;27;20275;-43
2022/04/14 01:15:25;;;;;;;;;;;;;;;;;;2132017;27;19974;-43
2022/04/14 01:16:25;;;;;;;;;;;;;;;;;;2132309;27;20010;-43
2022/04/14 01:17:26;;;;;;;;;;;;;;;;;;2132349;27;20294;-50
2022/04/14 01:18:27;;;;;;;;;;;;;;;;;;2137142;27;20018;-43
2022/04/14 01:19:28;;;;;;;;;;;;;;;;;;2140758;27;19933;-43
2022/04/14 01:20:29;;;;;;;;;;;;;;;;;;2140601;27;19923;-43
2022/04/14 01:21:33;;;;;;;;;;;;;;;;;;2140500;27;19927;-43
2022/04/14 01:22:34;;;;;;;;;;;;;;;;;;2140560;27;20407;-43
2022/04/14 01:23:36;;;;;;;;;;;;;;;;;;2140711;27;20013;-43
2022/04/14 01:24:36;;;;;;;;;;;;;;;;;;2140598;27;19958;-43
2022/04/14 01:25:37;;;;;;;;;;;;;;;;;;2140683;27;19922;-43
2022/04/14 01:26:38;;;;;;;;;;;;;;;;;;2140642;27;19961;-43
2022/04/14 01:27:39;;;;;;;;;;;;;;;;;;2140523;27;19923;-43
2022/04/14 01:28:40;;;;;;;;;;;;;;;;;;2140504;27;19969;-43
2022/04/14 01:29:41;;;;;;;;;;;;;;;;;;2140545;27;20409;-43
2022/04/14 01:30:42;;;;;;;;;;;;;;;;;;2140642;27;20063;-43
2022/04/14 01:31:43;;;;;;;;;;;;;;;;;;2140442;27;20371;-43
2022/04/14 01:32:44;;;;;;;;;;;;;;;;;;2140607;27;19930;-43
2022/04/14 01:33:45;;;;;;;;;;;;;;;;;;2140497;27;19958;-43
2022/04/14 01:34:45;;;;;;;;;;;;;;;;;;2140885;27;20017;-50
2022/04/14 01:35:47;;;;;;;;;;;;;;;;;;2140595;27;19929;-50
2022/04/14 01:36:47;;;;;;;;;;;;;;;;;;2140553;27;20052;-49
2022/04/14 01:37:48;;;;;;;;;;;;;;;;;;2140515;27;19940;-49
2022/04/14 01:38:49;;;;;;;;;;;;;;;;;;2140392;27;20058;-50
2022/04/14 01:39:50;;;;;;;;;;;;;;;;;;2140612;27;19926;-50
2022/04/14 01:40:51;;;;;;;;;;;;;;;;;;2140481;27;20014;-50
2022/04/14 01:41:52;;;;;;;;;;;;;;;;;;2140753;27;19922;-52
2022/04/14 01:42:53;;;;;;;;;;;;;;;;;;2140405;27;20021;-49
2022/04/14 01:43:54;;;;;;;;;;;;;;;;;;2140965;27;19923;-43
2022/04/14 01:44:54;;;;;;;;;;;;;;;;;;2140551;27;20033;-43
2022/04/14 01:45:55;;;;;;;;;;;;;;;;;;2140642;27;19927;-43
2022/04/14 01:46:56;;;;;;;;;;;;;;;;;;2140418;27;19922;-43
2022/04/14 01:47:57;;;;;;;;;;;;;;;;;;2140398;27;19922;-43
2022/04/14 01:48:59;;;;;;;;;;;;;;;;;;2140465;27;20018;-43
2022/04/14 01:50:00;;;;;;;;;;;;;;;;;;2140341;27;20071;-43
2022/04/14 01:51:01;;;;;;;;;;;;;;;;;;2140576;27;20411;-43
2022/04/14 01:52:02;;;;;;;;;;;;;;;;;;2140393;27;19927;-43
2022/04/14 01:53:03;;;;;;;;;;;;;;;;;;2140409;27;19963;-43
2022/04/14 01:54:04;;;;;;;;;;;;;;;;;;2140398;27;19923;-43
2022/04/14 01:55:05;;;;;;;;;;;;;;;;;;2140485;27;20337;-43
2022/04/14 01:56:06;;;;;;;;;;;;;;;;;;2140327;27;19954;-43
2022/04/14 01:57:07;;;;;;;;;;;;;;;;;;2140542;27;20477;-50
2022/04/14 01:58:08;;;;;;;;;;;;;;;;;;2140338;27;19923;-51
2022/04/14 01:59:08;;;;;;;;;;;;;;;;;;2140469;27;19923;-50
2022/04/14 02:00:09;;;;;;;;;;;;;;;;;;2140663;27;20026;-43
2022/04/14 02:01:10;;;;;;;;;;;;;;;;;;2140274;27;19972;-43
2022/04/14 02:02:12;;;;;;;;;;;;;;;;;;2140660;27;19923;-50
2022/04/14 02:03:12;;;;;;;;;;;;;;;;;;2140257;27;20368;-53
2022/04/14 02:04:13;;;;;;;;;;;;;;;;;;2140282;27;19923;-50
2022/04/14 02:05:14;;;;;;;;;;;;;;;;;;2140493;27;19922;-43
2022/04/14 02:06:15;;;;;;;;;;;;;;;;;;2140337;27;19927;-43
2022/04/14 02:07:16;;;;;;;;;;;;;;;;;;2140377;27;19930;-43
2022/04/14 02:08:17;;;;;;;;;;;;;;;;;;2140428;27;19929;-43
2022/04/14 02:09:18;;;;;;;;;;;;;;;;;;2140261;27;19970;-43
2022/04/14 02:10:19;;;;;;;;;;;;;;;;;;2140155;27;20001;-43
2022/04/14 02:11:20;;;;;;;;;;;;;;;;;;2140262;27;20063;-43
2022/04/14 02:12:21;;;;;;;;;;;;;;;;;;2140193;27;19975;-43
2022/04/14 02:13:21;;;;;;;;;;;;;;;;;;2140187;27;20391;-43
2022/04/14 02:14:23;;;;;;;;;;;;;;;;;;2138263;27;19923;-43
2022/04/14 02:15:23;;;;;;;;;;;;;;;;;;2140708;27;19962;-43
2022/04/14 02:16:24;;;;;;;;;;;;;;;;;;2140192;27;19978;-43
2022/04/14 02:17:25;;;;;;;;;;;;;;;;;;2140233;27;19927;-43
2022/04/14 02:18:26;;;;;;;;;;;;;;;;;;2140123;27;19949;-43
2022/04/14 02:19:27;;;;;;;;;;;;;;;;;;2140149;27;20019;-43
2022/04/14 02:20:28;;;;;;;;;;;;;;;;;;2140219;27;20450;-43
2022/04/14 02:21:29;;;;;;;;;;;;;;;;;;2140334;27;19947;-52
2022/04/14 02:22:30;;;;;;;;;;;;;;;;;;2139826;27;19947;-50
2022/04/14 02:23:31;;;;;;;;;;;;;;;;;;2140187;27;19972;-50
2022/04/14 02:24:32;;;;;;;;;;;;;;;;;;2140347;27;19968;-50
2022/04/14 02:25:33;;;;;;;;;;;;;;;;;;2140229;27;20096;-50
2022/04/14 02:26:34;;;;;;;;;;;;;;;;;;2140167;27;19933;-50
2022/04/14 02:27:34;;;;;;;;;;;;;;;;;;2140291;27;19958;-51
2022/04/14 02:28:35;;;;;;;;;;;;;;;;;;2140420;27;20017;-50
2022/04/14 02:29:36;;;;;;;;;;;;;;;;;;2140201;27;20378;-52
2022/04/14 02:30:37;;;;;;;;;;;;;;;;;;2140109;27;19923;-53
2022/04/14 02:31:38;;;;;;;;;;;;;;;;;;2140196;27;20029;-50
2022/04/14 02:32:39;;;;;;;;;;;;;;;;;;2140389;27;19970;-43
2022/04/14 02:33:40;;;;;;;;;;;;;;;;;;2140397;27;19972;-43
2022/04/14 02:34:41;;;;;;;;;;;;;;;;;;2140120;27;20423;-43
2022/04/14 02:35:42;;;;;;;;;;;;;;;;;;2140331;27;19966;-43
2022/04/14 02:36:43;;;;;;;;;;;;;;;;;;2140090;27;19974;-43
2022/04/14 02:37:43;;;;;;;;;;;;;;;;;;2140145;27;20043;-42
2022/04/14 02:38:45;;;;;;;;;;;;;;;;;;2140196;27;20320;-43
2022/04/14 02:39:46;;;;;;;;;;;;;;;;;;2140322;27;20021;-42
2022/04/14 02:40:47;;;;;;;;;;;;;;;;;;2140064;27;19923;-43
2022/04/14 02:41:48;;;;;;;;;;;;;;;;;;2140077;27;20045;-43
2022/04/14 02:42:49;;;;;;;;;;;;;;;;;;2140116;27;20387;-43
2022/04/14 02:43:50;;;;;;;;;;;;;;;;;;2140011;27;19957;-43
2022/04/14 02:44:51;;;;;;;;;;;;;;;;;;2140130;27;20302;-43
2022/04/14 02:45:51;;;;;;;;;;;;;;;;;;2140195;27;19994;-43
2022/04/14 02:46:52;;;;;;;;;;;;;;;;;;2139937;27;20371;-43
2022/04/14 02:47:53;;;;;;;;;;;;;;;;;;2140055;27;20009;-43
2022/04/14 02:48:54;;;;;;;;;;;;;;;;;;2140069;27;19966;-43
2022/04/14 02:49:55;;;;;;;;;;;;;;;;;;2139939;27;19922;-43
2022/04/14 02:50:56;;;;;;;;;;;;;;;;;;2140079;27;19927;-43
2022/04/14 02:51:57;;;;;;;;;;;;;;;;;;2140087;27;19923;-43
2022/04/14 02:52:58;;;;;;;;;;;;;;;;;;2139978;27;20279;-43
2022/04/14 02:53:59;;;;;;;;;;;;;;;;;;2140043;27;19923;-43
2022/04/14 02:55:00;;;;;;;;;;;;;;;;;;2140000;27;19930;-43
2022/04/14 02:56:01;;;;;;;;;;;;;;;;;;2140126;27;19966;-43
2022/04/14 02:57:02;;;;;;;;;;;;;;;;;;2139905;27;20397;-43
2022/04/14 02:58:02;;;;;;;;;;;;;;;;;;2139732;27;19975;-53
2022/04/14 02:59:03;;;;;;;;;;;;;;;;;;2139999;27;20391;-50
2022/04/14 03:00:05;;;;;;;;;;;;;;;;;;2140135;27;19945;-51
2022/04/14 03:01:06;;;;;;;;;;;;;;;;;;2140022;27;20018;-50
2022/04/14 03:02:07;;;;;;;;;;;;;;;;;;2139833;27;20335;-43
2022/04/14 03:03:08;;;;;;;;;;;;;;;;;;2140078;27;19927;-43
2022/04/14 03:04:09;;;;;;;;;;;;;;;;;;2140405;27;20017;-50
2022/04/14 03:05:10;;;;;;;;;;;;;;;;;;2140339;27;19968;-52
2022/04/14 03:06:11;;;;;;;;;;;;;;;;;;2139880;27;20380;-49
2022/04/14 03:07:12;;;;;;;;;;;;;;;;;;2140204;27;20405;-49
2022/04/14 03:08:13;;;;;;;;;;;;;;;;;;2140108;27;19927;-50
2022/04/14 03:09:14;;;;;;;;;;;;;;;;;;2140145;27;20014;-51
2022/04/14 03:10:15;;;;;;;;;;;;;;;;;;2139919;27;19922;-50
2022/04/14 03:11:16;;;;;;;;;;;;;;;;;;2139931;27;20024;-43
2022/04/14 03:12:17;;;;;;;;;;;;;;;;;;2140058;27;20369;-43
2022/04/14 03:13:20;;;;;;;;;;;;;;;;;;2139886;27;19930;-43
2022/04/14 03:14:21;;;;;;;;;;;;;;;;;;2136214;27;19923;-52
2022/04/14 03:15:22;;;;;;;;;;;;;;;;;;2131318;27;19931;-53
2022/04/14 03:16:23;;;;;;;;;;;;;;;;;;2131189;27;20018;-50
2022/04/14 03:17:24;;;;;;;;;;;;;;;;;;2131474;27;20303;-51
2022/04/14 03:18:25;;;;;;;;;;;;;;;;;;2131328;27;19923;-51
2022/04/14 03:19:25;;;;;;;;;;;;;;;;;;2131596;27;19966;-43
2022/04/14 03:20:27;;;;;;;;;;;;;;;;;;2131983;27;20287;-50
2022/04/14 03:21:27;;;;;;;;;;;;;;;;;;2131379;27;20018;-52
2022/04/14 03:22:28;;;;;;;;;;;;;;;;;;2131515;27;19983;-49
2022/04/14 03:23:29;;;;;;;;;;;;;;;;;;2131170;27;19970;-50
2022/04/14 03:24:30;;;;;;;;;;;;;;;;;;2131221;27;19954;-52
2022/04/14 03:25:31;;;;;;;;;;;;;;;;;;2131430;27;19958;-49
2022/04/14 03:26:32;;;;;;;;;;;;;;;;;;2131108;27;19946;-50
2022/04/14 03:27:33;;;;;;;;;;;;;;;;;;2131230;27;19967;-50
2022/04/14 03:28:34;;;;;;;;;;;;;;;;;;2131209;27;19955;-51
2022/04/14 03:29:35;;;;;;;;;;;;;;;;;;2131524;27;19974;-51
2022/04/14 03:30:36;;;;;;;;;;;;;;;;;;2131612;27;20026;-43
2022/04/14 03:31:37;;;;;;;;;;;;;;;;;;2131177;27;19927;-42
2022/04/14 03:32:37;;;;;;;;;;;;;;;;;;2131235;27;19923;-43
2022/04/14 03:33:38;;;;;;;;;;;;;;;;;;2131178;27;19930;-43
2022/04/14 03:34:39;;;;;;;;;;;;;;;;;;2131994;27;19997;-43
2022/04/14 03:35:40;;;;;;;;;;;;;;;;;;2132875;27;19923;-50
2022/04/14 03:36:41;;;;;;;;;;;;;;;;;;2132582;27;20372;-50
2022/04/14 03:37:42;;;;;;;;;;;;;;;;;;2132648;27;20014;-50
2022/04/14 03:38:43;;;;;;;;;;;;;;;;;;2132658;27;19923;-50
2022/04/14 03:39:44;;;;;;;;;;;;;;;;;;2132754;27;19923;-51
2022/04/14 03:40:45;;;;;;;;;;;;;;;;;;2133007;27;19923;-43
2022/04/14 03:41:47;;;;;;;;;;;;;;;;;;2132672;27;20021;-42
2022/04/14 03:42:48;;;;;;;;;;;;;;;;;;2132740;27;20021;-43
2022/04/14 03:43:49;;;;;;;;;;;;;;;;;;2133163;27;20065;-43
2022/04/14 03:44:49;;;;;;;;;;;;;;;;;;2137183;27;20612;-43
2022/04/14 03:45:50;;;;;;;;;;;;;;;;;;2141261;27;20394;-43
2022/04/14 03:46:51;;;;;;;;;;;;;;;;;;2141335;27;19958;-52
2022/04/14 03:47:52;;;;;;;;;;;;;;;;;;2141134;27;19922;-51
2022/04/14 03:48:54;;;;;;;;;;;;;;;;;;2141439;27;19976;-52
2022/04/14 03:49:55;;;;;;;;;;;;;;;;;;2141388;27;19923;-50
2022/04/14 03:50:56;;;;;;;;;;;;;;;;;;2141414;27;19973;-49
2022/04/14 03:51:57;;;;;;;;;;;;;;;;;;2141248;27;19929;-50
2022/04/14 03:52:58;;;;;;;;;;;;;;;;;;2141105;27;19922;-49
2022/04/14 03:53:59;;;;;;;;;;;;;;;;;;2141296;27;19922;-51
2022/04/14 03:55:00;;;;;;;;;;;;;;;;;;2141261;27;20018;-51
2022/04/14 03:56:01;;;;;;;;;;;;;;;;;;2141131;27;19923;-49
2022/04/14 03:57:01;;;;;;;;;;;;;;;;;;2141323;27;19966;-43
2022/04/14 03:58:03;;;;;;;;;;;;;;;;;;2141134;27;20009;-43
2022/04/14 03:59:03;;;;;;;;;;;;;;;;;;2141270;27;19923;-43
2022/04/14 04:00:04;;;;;;;;;;;;;;;;;;2134597;27;19966;-42
2022/04/14 04:01:05;;;;;;;;;;;;;;;;;;2132634;27;20010;-42
2022/04/14 04:02:06;;;;;;;;;;;;;;;;;;2132403;27;19927;-42
2022/04/14 04:03:07;;;;;;;;;;;;;;;;;;2132605;27;19923;-42
2022/04/14 04:04:08;;;;;;;;;;;;;;;;;;2132780;27;19970;-42
2022/04/14 04:05:09;;;;;;;;;;;;;;;;;;2132444;27;19970;-42
2022/04/14 04:06:10;;;;;;;;;;;;;;;;;;2132410;27;20046;-42
2022/04/14 04:07:11;;;;;;;;;;;;;;;;;;2137344;27;19923;-43
2022/04/14 04:08:12;;;;;;;;;;;;;;;;;;2141106;27;20025;-43
2022/04/14 04:09:12;;;;;;;;;;;;;;;;;;2141102;27;19970;-43
2022/04/14 04:10:13;;;;;;;;;;;;;;;;;;2141191;27;19922;-43
2022/04/14 04:11:14;;;;;;;;;;;;;;;;;;2140995;27;20260;-43
2022/04/14 04:12:17;;;;;;;;;;;;;;;;;;2141456;27;19930;-42
2022/04/14 04:13:18;;;;;;;;;;;;;;;;;;2141102;27;19922;-43
2022/04/14 04:14:19;;;;;;;;;;;;;;;;;;2140956;27;19929;-43
2022/04/14 04:15:20;;;;;;;;;;;;;;;;;;2141102;27;20009;-43
2022/04/14 04:16:21;;;;;;;;;;;;;;;;;;2140937;27;19958;-43
2022/04/14 04:17:22;;;;;;;;;;;;;;;;;;2141064;27;19923;-42
2022/04/14 04:18:23;;;;;;;;;;;;;;;;;;2141001;27;20021;-52
2022/04/14 04:19:24;;;;;;;;;;;;;;;;;;2141148;27;20094;-50
2022/04/14 04:20:25;;;;;;;;;;;;;;;;;;2141039;27;19979;-52
2022/04/14 04:21:29;;;;;;;;;;;;;;;;;;2141083;27;20392;-50
2022/04/14 04:22:29;;;;;;;;;;;;;;;;;;2141264;27;19958;-43
2022/04/14 04:23:30;;;;;;;;;;;;;;;;;;2141007;27;19988;-43
2022/04/14 04:24:31;;;;;;;;;;;;;;;;;;2141210;27;20059;-43
2022/04/14 04:25:32;;;;;;;;;;;;;;;;;;2141090;27;20416;-43
2022/04/14 04:26:33;;;;;;;;;;;;;;;;;;2141126;27;19922;-50
2022/04/14 04:27:35;;;;;;;;;;;;;;;;;;2140888;27;19923;-49
2022/04/14 04:28:36;;;;;;;;;;;;;;;;;;2140951;27;20049;-51
2022/04/14 04:29:37;;;;;;;;;;;;;;;;;;2140887;27;19982;-52
2022/04/14 04:30:38;;;;;;;;;;;;;;;;;;2141221;27;19922;-51
2022/04/14 04:31:39;;;;;;;;;;;;;;;;;;2141230;27;19957;-50
2022/04/14 04:32:40;;;;;;;;;;;;;;;;;;2141102;27;19923;-49
2022/04/14 04:33:41;;;;;;;;;;;;;;;;;;2140900;27;20304;-50
2022/04/14 04:34:42;;;;;;;;;;;;;;;;;;2141156;27;20387;-50
2022/04/14 04:35:42;;;;;;;;;;;;;;;;;;2141008;27;19946;-52
2022/04/14 04:36:43;;;;;;;;;;;;;;;;;;2140776;27;20363;-50
2022/04/14 04:37:44;;;;;;;;;;;;;;;;;;2141011;27;19958;-51
2022/04/14 04:38:45;;;;;;;;;;;;;;;;;;2141075;27;19930;-51
2022/04/14 04:39:46;;;;;;;;;;;;;;;;;;2140803;27;20378;-51
2022/04/14 04:40:47;;;;;;;;;;;;;;;;;;2140818;27;19954;-51
2022/04/14 04:41:48;;;;;;;;;;;;;;;;;;2141062;27;19996;-42
2022/04/14 04:42:49;;;;;;;;;;;;;;;;;;2140761;27;20017;-43
2022/04/14 04:43:49;;;;;;;;;;;;;;;;;;2140886;27;19930;-43
2022/04/14 04:44:50;;;;;;;;;;;;;;;;;;2140834;27;19927;-43
2022/04/14 04:45:51;;;;;;;;;;;;;;;;;;2140658;27;20013;-43
2022/04/14 04:46:52;;;;;;;;;;;;;;;;;;2141059;27;20327;-43
2022/04/14 04:47:53;;;;;;;;;;;;;;;;;;2140781;27;19922;-43
2022/04/14 04:48:54;;;;;;;;;;;;;;;;;;2140747;27;19922;-43
2022/04/14 04:49:55;;;;;;;;;;;;;;;;;;2141238;27;19958;-43
2022/04/14 04:50:56;;;;;;;;;;;;;;;;;;2141030;27;19933;-50
2022/04/14 04:51:59;;;;;;;;;;;;;;;;;;2140652;27;20067;-50
2022/04/14 04:53:00;;;;;;;;;;;;;;;;;;2141001;27;20010;-50
2022/04/14 04:54:02;;;;;;;;;;;;;;;;;;2140740;27;19935;-53
2022/04/14 04:55:03;;;;;;;;;;;;;;;;;;2140827;27;19939;-51
2022/04/14 04:56:03;;;;;;;;;;;;;;;;;;2140624;27;19966;-51
2022/04/14 04:57:05;;;;;;;;;;;;;;;;;;2140782;27;19923;-51
2022/04/14 04:58:05;;;;;;;;;;;;;;;;;;2140726;27;19930;-49
2022/04/14 04:59:08;;;;;;;;;;;;;;;;;;2140930;27;20013;-49
2022/04/14 05:00:08;;;;;;;;;;;;;;;;;;2140866;27;19962;-49
2022/04/14 05:01:09;;;;;;;;;;;;;;;;;;2140679;27;19926;-50
2022/04/14 05:02:10;;;;;;;;;;;;;;;;;;2141016;27;19930;-42
2022/04/14 05:03:11;;;;;;;;;;;;;;;;;;2140796;27;19974;-42
2022/04/14 05:04:12;;;;;;;;;;;;;;;;;;2140866;27;19923;-42
2022/04/14 05:05:13;;;;;;;;;;;;;;;;;;2141027;27;20350;-42
2022/04/14 05:06:14;;;;;;;;;;;;;;;;;;2140631;27;19962;-42
2022/04/14 05:07:15;;;;;;;;;;;;;;;;;;2140559;27;20391;-42
2022/04/14 05:08:16;;;;;;;;;;;;;;;;;;2140672;27;20010;-42
2022/04/14 05:09:17;;;;;;;;;;;;;;;;;;2140997;27;20050;-42
2022/04/14 05:10:17;;;;;;;;;;;;;;;;;;2140581;27;19958;-42
2022/04/14 05:11:18;;;;;;;;;;;;;;;;;;2140736;27;20270;-42
2022/04/14 05:12:19;;;;;;;;;;;;;;;;;;2140654;27;19966;-42
2022/04/14 05:13:20;;;;;;;;;;;;;;;;;;2140500;27;19976;-42
2022/04/14 05:14:21;;;;;;;;;;;;;;;;;;2136873;27;19923;-50
2022/04/14 05:15:22;;;;;;;;;;;;;;;;;;2132099;27;20277;-50
2022/04/14 05:16:23;;;;;;;;;;;;;;;;;;2132093;27;19923;-52
2022/04/14 05:17:24;;;;;;;;;;;;;;;;;;2132220;27;19927;-50
2022/04/14 05:18:25;;;;;;;;;;;;;;;;;;2132208;27;19969;-42
2022/04/14 05:19:26;;;;;;;;;;;;;;;;;;2131874;27;20379;-42
2022/04/14 05:20:26;;;;;;;;;;;;;;;;;;2132191;27;19985;-52
2022/04/14 05:21:28;;;;;;;;;;;;;;;;;;2131975;27;19927;-51
2022/04/14 05:22:31;;;;;;;;;;;;;;;;;;2132301;27;20316;-42
2022/04/14 05:23:32;;;;;;;;;;;;;;;;;;2132094;27;20009;-42
2022/04/14 05:24:33;;;;;;;;;;;;;;;;;;2132096;27;19965;-42
2022/04/14 05:25:34;;;;;;;;;;;;;;;;;;2131835;27;20307;-42
2022/04/14 05:26:35;;;;;;;;;;;;;;;;;;2131861;27;20336;-42
2022/04/14 05:27:36;;;;;;;;;;;;;;;;;;2132004;27;20014;-42
2022/04/14 05:28:37;;;;;;;;;;;;;;;;;;2131782;27;19965;-42
2022/04/14 05:29:38;;;;;;;;;;;;;;;;;;2132009;27;20428;-42
2022/04/14 05:30:38;;;;;;;;;;;;;;;;;;2131857;27;20014;-42
2022/04/14 05:31:40;;;;;;;;;;;;;;;;;;2131915;27;19923;-42
2022/04/14 05:32:40;;;;;;;;;;;;;;;;;;2132128;27;19950;-49
2022/04/14 05:33:42;;;;;;;;;;;;;;;;;;2131881;27;20001;-51
2022/04/14 05:34:42;;;;;;;;;;;;;;;;;;2132065;27;20024;-44
2022/04/14 05:35:43;;;;;;;;;;;;;;;;;;2132233;27;19967;-49
2022/04/14 05:36:44;;;;;;;;;;;;;;;;;;2131881;27;20018;-50
2022/04/14 05:37:45;;;;;;;;;;;;;;;;;;2131779;27;20267;-50
2022/04/14 05:38:46;;;;;;;;;;;;;;;;;;2131744;27;19950;-49
2022/04/14 05:39:47;;;;;;;;;;;;;;;;;;2131858;27;19923;-50
2022/04/14 05:40:49;;;;;;;;;;;;;;;;;;2131871;27;19978;-43
2022/04/14 05:41:50;;;;;;;;;;;;;;;;;;2131752;27;20030;-43
2022/04/14 05:42:51;;;;;;;;;;;;;;;;;;2132113;27;19975;-50
2022/04/14 05:43:52;;;;;;;;;;;;;;;;;;2131901;27;19959;-42
2022/04/14 05:44:53;;;;;;;;;;;;;;;;;;2132005;27;19927;-42
2022/04/14 05:45:55;;;;;;;;;;;;;;;;;;2131841;27;19948;-42
2022/04/14 05:46:56;;;;;;;;;;;;;;;;;;2131683;27;19959;-42
2022/04/14 05:47:57;;;;;;;;;;;;;;;;;;2131823;27;19930;-42
2022/04/14 05:48:58;;;;;;;;;;;;;;;;;;2131930;27;20283;-50
2022/04/14 05:49:59;;;;;;;;;;;;;;;;;;2131873;27;19966;-42
2022/04/14 05:51:00;;;;;;;;;;;;;;;;;;2131896;27;20018;-42
2022/04/14 05:52:00;;;;;;;;;;;;;;;;;;2131725;27;19930;-42
2022/04/14 05:53:02;;;;;;;;;;;;;;;;;;2131682;27;20384;-42
2022/04/14 05:54:03;;;;;;;;;;;;;;;;;;2132155;27;19929;-50
2022/04/14 05:55:04;;;;;;;;;;;;;;;;;;2131824;27;19937;-49
2022/04/14 05:56:05;;;;;;;;;;;;;;;;;;2131730;27;20067;-49
2022/04/14 05:57:06;;;;;;;;;;;;;;;;;;2130938;27;20369;-52
2022/04/14 05:58:07;;;;;;;;;;;;;;;;;;2131644;27;19927;-52
2022/04/14 05:59:15;;;;;;;;;;;;;;;;;;2131753;27;20038;-50
2022/04/14 06:00:16;;;;;;;;;;;;;;;;;;2140439;27;19974;-49
2022/04/14 06:01:17;;;;;;;;;;;;;;;;;;2140178;27;19937;-51
2022/04/14 06:02:18;;;;;;;;;;;;;;;;;;2140387;27;19923;-50
2022/04/14 06:03:20;;;;;;;;;;;;;;;;;;2140422;27;19922;-51
2022/04/14 06:04:20;;;;;;;;;;;;;;;;;;2140699;27;19922;-51
2022/04/14 06:05:21;;;;;;;;;;;;;;;;;;2140349;27;19929;-52
2022/04/14 06:06:22;;;;;;;;;;;;;;;;;;2140304;27;19926;-51
2022/04/14 06:07:23;;;;;;;;;;;;;;;;;;2140476;27;20148;-49
2022/04/14 06:08:24;;;;;;;;;;;;;;;;;;2140293;27;20033;-52
2022/04/14 06:09:25;;;;;;;;;;;;;;;;;;2140547;27;20026;-44
2022/04/14 06:10:26;;;;;;;;;;;;;;;;;;2140773;27;19971;-51
2022/04/14 06:11:28;;;;;;;;;;;;;;;;;;2140176;27;19986;-54
2022/04/14 06:12:29;;;;;;;;;;;;;;;;;;2140257;27;19970;-52
2022/04/14 06:13:30;;;;;;;;;;;;;;;;;;2140380;27;19975;-53
2022/04/14 06:14:33;;;;;;;;;;;;;;;;;;2140131;27;20057;-51
2022/04/14 06:15:34;;;;;;;;;;;;;;;;;;2140741;27;20005;-53
2022/04/14 06:16:35;;;;;;;;;;;;;;;;;;2140199;27;19923;-51
2022/04/14 06:17:36;;;;;;;;;;;;;;;;;;2140213;27;19923;-52
2022/04/14 06:18:37;;;;;;;;;;;;;;;;;;2140551;27;20013;-51
2022/04/14 06:19:38;;;;;;;;;;;;;;;;;;2140247;27;19926;-54
2022/04/14 06:20:39;;;;;;;;;;;;;;;;;;2140268;27;19970;-51
2022/04/14 06:21:40;;;;;;;;;;;;;;;;;;2140319;27;20078;-53
2022/04/14 06:22:41;;;;;;;;;;;;;;;;;;2140368;27;19974;-53
2022/04/14 06:23:42;;;;;;;;;;;;;;;;;;2140321;27;19965;-54
2022/04/14 06:24:43;;;;;;;;;;;;;;;;;;2140369;27;20021;-52
2022/04/14 06:25:45;;;;;;;;;;;;;;;;;;2139965;27;19923;-43
2022/04/14 06:26:46;;;;;;;;;;;;;;;;;;2139837;27;19930;-43
2022/04/14 06:27:47;;;;;;;;;;;;;;;;;;2140244;27;19978;-43
2022/04/14 06:28:48;;;;;;;;;;;;;;;;;;2140522;27;19957;-43
2022/04/14 06:29:49;;;;;;;;;;;;;;;;;;2140383;27;20550;-53
2022/04/14 06:30:51;;;;;;;;;;;;;;;;;;2140235;27;20319;-51
2022/04/14 06:31:52;;;;;;;;;;;;;;;;;;2140337;27;19923;-52
2022/04/14 06:32:53;;;;;;;;;;;;;;;;;;2140458;27;19934;-51
2022/04/14 06:33:55;;;;;;;;;;;;;;;;;;2140305;27;19930;-53
2022/04/14 06:34:56;;;;;;;;;;;;;;;;;;2140186;27;19977;-51
2022/04/14 06:35:59;;;;;;;;;;;;;;;;;;2140144;27;19922;-52
2022/04/14 06:36:59;;;;;;;;;;;;;;;;;;2140102;27;20018;-51
2022/04/14 06:38:00;;;;;;;;;;;;;;;;;;2139806;27;20001;-43
2022/04/14 06:39:01;;;;;;;;;;;;;;;;;;2140332;27;20044;-44
2022/04/14 06:40:02;;;;;;;;;;;;;;;;;;2140187;27;20002;-44
2022/04/14 06:41:23;;;;;;;;;;;;;;;;;;2140250;27;19923;-52
2022/04/14 06:42:24;;;;;;;;;;;;;;;;;;2140292;27;20352;-44
2022/04/14 06:43:25;;;;;;;;;;;;;;;;;;2140659;27;19922;-43
2022/04/14 06:44:26;;;;;;;;;;;;;;;;;;2140100;27;19958;-43
2022/04/14 06:45:27;;;;;;;;;;;;;;;;;;2140124;27;19927;-44
2022/04/14 06:46:29;;;;;;;;;;;;;;;;;;2140226;27;20298;-50
2022/04/14 06:47:30;;;;;;;;;;;;;;;;;;2140245;27;19922;-51
2022/04/14 06:48:31;;;;;;;;;;;;;;;;;;2136239;27;20017;-54
2022/04/14 06:49:32;;;;;;;;;;;;;;;;;;2131493;27;20176;-51
2022/04/14 06:50:33;;;;;;;;;;;;;;;;;;2131345;27;19973;-52
2022/04/14 06:51:34;;;;;;;;;;;;;;;;;;2131353;27;19923;-51
2022/04/14 06:52:35;;;;;;;;;;;;;;;;;;2131672;27;20359;-54
2022/04/14 06:53:37;;;;;;;;;;;;;;;;;;2131315;27;20050;-53
2022/04/14 06:54:38;;;;;;;;;;;;;;;;;;2131953;27;19976;-44
2022/04/14 06:55:42;;;;;;;;;;;;;;;;;;2135676;27;20058;-44
2022/04/14 06:56:43;;;;;;;;;;;;;;;;;;2139919;27;19962;-44
2022/04/14 06:57:44;;;;;;;;;;;;;;;;;;2140252;27;20038;-43